createdAt,value
2022-08-21T00:00:21.476Z,20.20
2022-08-21T00:02:26.470Z,20.10
2022-08-21T00:04:29.402Z,20.14
2022-08-21T00:06:32.010Z,20.08
2022-08-21T00:08:33.716Z,20.10
2022-08-21T00:10:35.754Z,20.03
2022-08-21T00:12:37.878Z,20.05
2022-08-21T00:14:39.857Z,20.00
2022-08-21T00:16:41.863Z,19.96
2022-08-21T00:18:43.851Z,19.98
2022-08-21T00:20:46.750Z,20.04
2022-08-21T00:22:49.988Z,20.07
2022-08-21T00:24:51.717Z,20.06
2022-08-21T00:26:54.002Z,20.06
2022-08-21T00:28:55.756Z,20.10
2022-08-21T00:31:00.406Z,20.10
2022-08-21T00:33:03.122Z,20.12
2022-08-21T00:35:07.984Z,20.04
2022-08-21T00:37:09.676Z,19.92
2022-08-21T00:39:11.528Z,19.95
2022-08-21T00:41:25.964Z,19.95
2022-08-21T00:43:37.973Z,19.97
2022-08-21T00:45:40.089Z,19.98
2022-08-21T00:47:41.973Z,19.78
2022-08-21T00:49:44.305Z,19.89
2022-08-21T00:52:04.192Z,19.81
2022-08-21T00:54:08.926Z,19.75
2022-08-21T00:56:22.024Z,19.71
2022-08-21T00:58:24.657Z,19.68
2022-08-21T01:00:31.204Z,19.68
2022-08-21T01:02:33.056Z,19.68
2022-08-21T01:04:35.924Z,19.52
2022-08-21T01:06:37.605Z,19.59
2022-08-21T01:08:39.970Z,19.65
2022-08-21T01:10:54.675Z,19.58
2022-08-21T01:12:58.509Z,19.55
2022-08-21T01:15:02.380Z,19.61
2022-08-21T01:17:05.148Z,19.60
2022-08-21T01:19:09.588Z,19.43
2022-08-21T01:21:18.919Z,19.41
2022-08-21T01:23:21.193Z,19.29
2022-08-21T01:25:22.975Z,19.30
2022-08-21T01:27:24.993Z,19.26
2022-08-21T01:29:55.915Z,19.21
2022-08-21T01:31:58.874Z,19.14
2022-08-21T01:34:01.139Z,19.22
2022-08-21T01:36:03.385Z,19.12
2022-08-21T01:38:05.559Z,19.24
2022-08-21T01:40:08.919Z,19.05
2022-08-21T01:42:18.283Z,19.09
2022-08-21T01:44:23.087Z,19.17
2022-08-21T01:46:25.197Z,19.19
2022-08-21T01:48:27.339Z,19.21
2022-08-21T01:50:30.809Z,19.15
2022-08-21T01:52:32.758Z,19.21
2022-08-21T01:54:35.634Z,19.28
2022-08-21T01:56:41.015Z,19.27
2022-08-21T01:58:44.976Z,19.27
2022-08-21T02:00:47.109Z,19.33
2022-08-21T02:02:49.201Z,19.25
2022-08-21T02:04:51.212Z,19.31
2022-08-21T02:06:55.318Z,19.38
2022-08-21T02:08:57.169Z,19.36
2022-08-21T02:10:59.173Z,19.41
2022-08-21T02:13:01.663Z,19.37
2022-08-21T02:15:05.550Z,19.40
2022-08-21T02:17:09.669Z,19.38
2022-08-21T02:19:13.868Z,19.43
2022-08-21T02:21:15.799Z,19.44
2022-08-21T02:23:17.661Z,19.29
2022-08-21T02:25:23.658Z,19.35
2022-08-21T02:27:27.417Z,19.28
2022-08-21T02:29:29.446Z,19.25
2022-08-21T02:31:32.367Z,19.19
2022-08-21T02:33:34.728Z,19.25
2022-08-21T02:35:38.426Z,19.26
2022-08-21T02:37:46.264Z,19.15
2022-08-21T02:39:48.202Z,19.07
2022-08-21T02:41:50.138Z,19.15
2022-08-21T02:43:52.153Z,19.14
2022-08-21T02:45:56.356Z,19.13
2022-08-21T02:48:01.279Z,19.01
2022-08-21T02:50:08.690Z,19.03
2022-08-21T02:52:10.600Z,19.03
2022-08-21T02:54:12.357Z,19.08
2022-08-21T02:56:17.984Z,19.07
2022-08-21T02:58:31.600Z,19.04
2022-08-21T03:00:35.074Z,19.00
2022-08-21T03:02:37.033Z,18.99
2022-08-21T03:04:41.370Z,18.98
2022-08-21T03:06:45.177Z,19.03
2022-08-21T03:08:47.404Z,19.06
2022-08-21T03:10:53.472Z,19.11
2022-08-21T03:12:55.802Z,19.12
2022-08-21T03:14:58.855Z,19.06
2022-08-21T03:17:00.873Z,18.98
2022-08-21T03:19:03.578Z,18.93
2022-08-21T03:21:06.571Z,18.94
2022-08-21T03:23:12.740Z,18.86
2022-08-21T03:25:16.256Z,18.94
2022-08-21T03:27:18.277Z,18.90
2022-08-21T03:29:22.024Z,18.84
2022-08-21T03:31:24.270Z,18.79
2022-08-21T03:33:26.127Z,18.81
2022-08-21T03:35:31.112Z,18.81
2022-08-21T03:37:33.467Z,18.84
2022-08-21T03:39:35.504Z,18.85
2022-08-21T03:41:37.329Z,18.74
2022-08-21T03:43:39.714Z,18.73
2022-08-21T03:45:41.806Z,18.56
2022-08-21T03:47:56.929Z,18.55
2022-08-21T03:49:58.836Z,18.60
2022-08-21T03:52:01.601Z,18.59
2022-08-21T03:54:04.333Z,18.59
2022-08-21T03:56:07.077Z,18.60
2022-08-21T03:58:16.331Z,18.72
2022-08-21T04:00:20.643Z,18.66
2022-08-21T04:04:38.896Z,18.77
2022-08-21T04:06:42.194Z,18.74
2022-08-21T04:08:44.165Z,18.71
2022-08-21T04:10:49.881Z,18.75
2022-08-21T04:12:52.349Z,18.78
2022-08-21T04:14:54.224Z,18.80
2022-08-21T04:16:56.070Z,18.77
2022-08-21T04:18:58.138Z,18.80
2022-08-21T04:21:01.377Z,18.81
2022-08-21T04:23:04.859Z,18.83
2022-08-21T04:25:08.393Z,18.87
2022-08-21T04:27:10.415Z,18.85
2022-08-21T04:29:12.550Z,18.83
2022-08-21T04:31:14.522Z,18.75
2022-08-21T04:33:16.371Z,18.74
2022-08-21T04:35:22.590Z,18.73
2022-08-21T04:37:25.075Z,18.74
2022-08-21T04:39:29.481Z,18.66
2022-08-21T04:41:32.399Z,18.67
2022-08-21T04:43:34.742Z,18.56
2022-08-21T04:45:39.712Z,18.68
2022-08-21T04:47:52.256Z,18.67
2022-08-21T04:49:55.199Z,18.68
2022-08-21T04:51:57.187Z,18.59
2022-08-21T04:54:10.270Z,18.63
2022-08-21T04:56:40.821Z,18.64
2022-08-21T04:58:43.951Z,18.64
2022-08-21T05:00:47.237Z,18.54
2022-08-21T05:02:51.059Z,18.62
2022-08-21T05:04:55.502Z,18.53
2022-08-21T05:07:03.166Z,18.54
2022-08-21T05:09:06.092Z,18.48
2022-08-21T05:11:08.228Z,18.47
2022-08-21T05:13:11.075Z,18.51
2022-08-21T05:15:13.959Z,18.52
2022-08-21T05:17:15.891Z,18.49
2022-08-21T05:19:17.734Z,18.55
2022-08-21T05:21:19.480Z,18.53
2022-08-21T05:23:21.687Z,18.53
2022-08-21T05:25:24.054Z,18.53
2022-08-21T05:27:25.854Z,18.52
2022-08-21T05:29:32.392Z,18.57
2022-08-21T05:31:34.462Z,18.50
2022-08-21T05:33:36.203Z,18.52
2022-08-21T05:35:42.158Z,18.51
2022-08-21T05:37:43.929Z,18.48
2022-08-21T05:40:05.546Z,18.53
2022-08-21T05:42:07.759Z,18.52
2022-08-21T05:44:10.095Z,18.54
2022-08-21T05:46:12.507Z,18.56
2022-08-21T05:48:24.815Z,18.61
2022-08-21T05:50:30.540Z,18.58
2022-08-21T05:52:35.178Z,18.63
2022-08-21T05:54:38.549Z,18.60
2022-08-21T05:56:40.261Z,18.55
2022-08-21T05:58:42.379Z,18.55
2022-08-21T06:00:45.102Z,18.56
2022-08-21T06:02:46.838Z,18.59
2022-08-21T06:04:49.435Z,18.57
2022-08-21T06:06:51.147Z,18.62
2022-08-21T06:08:54.022Z,18.63
2022-08-21T06:10:57.901Z,18.62
2022-08-21T06:12:59.805Z,18.64
2022-08-21T06:15:01.672Z,18.70
2022-08-21T06:17:09.876Z,18.68
2022-08-21T06:19:11.667Z,18.73
2022-08-21T06:21:14.644Z,18.77
2022-08-21T06:23:16.398Z,18.80
2022-08-21T06:25:19.503Z,18.84
2022-08-21T06:27:24.716Z,18.82
2022-08-21T06:29:28.271Z,18.85
2022-08-21T06:31:30.259Z,18.92
2022-08-21T06:33:32.801Z,18.92
2022-08-21T06:35:35.878Z,18.89
2022-08-21T06:37:37.936Z,18.96
2022-08-21T06:39:45.068Z,18.98
2022-08-21T06:41:47.104Z,18.94
2022-08-21T06:43:49.501Z,18.95
2022-08-21T06:45:51.409Z,18.96
2022-08-21T06:47:53.081Z,18.96
2022-08-21T06:49:55.245Z,18.95
2022-08-21T06:51:57.320Z,18.98
2022-08-21T06:53:59.371Z,19.07
2022-08-21T06:56:01.475Z,19.08
2022-08-21T06:58:05.758Z,19.11
2022-08-21T07:00:09.755Z,19.19
2022-08-21T07:02:11.573Z,19.17
2022-08-21T07:04:13.270Z,19.25
2022-08-21T07:06:15.830Z,19.28
2022-08-21T07:08:26.474Z,19.36
2022-08-21T07:10:28.851Z,19.43
2022-08-21T07:12:31.392Z,19.44
2022-08-21T07:14:33.081Z,19.49
2022-08-21T07:16:34.786Z,19.51
2022-08-21T07:18:36.550Z,19.47
2022-08-21T07:20:38.566Z,19.57
2022-08-21T07:22:42.215Z,19.59
2022-08-21T07:24:43.884Z,19.55
2022-08-21T07:26:45.559Z,19.60
2022-08-21T07:28:48.630Z,19.53
2022-08-21T07:30:55.834Z,19.56
2022-08-21T07:32:58.113Z,19.66
2022-08-21T07:35:00.404Z,19.57
2022-08-21T07:37:09.881Z,19.58
2022-08-21T07:39:11.707Z,19.51
2022-08-21T07:41:19.390Z,19.52
2022-08-21T07:43:22.642Z,19.60
2022-08-21T07:45:27.510Z,19.70
2022-08-21T07:47:41.813Z,19.77
2022-08-21T07:49:44.349Z,19.79
2022-08-21T07:51:46.078Z,19.83
2022-08-21T07:53:52.933Z,19.89
2022-08-21T07:55:58.510Z,19.93
2022-08-21T07:58:00.455Z,19.89
2022-08-21T08:00:02.660Z,19.95
2022-08-21T08:02:04.437Z,19.86
2022-08-21T08:04:06.151Z,19.81
2022-08-21T08:06:13.135Z,19.86
2022-08-21T08:08:14.968Z,19.91
2022-08-21T08:10:17.822Z,20.00
2022-08-21T08:12:19.525Z,19.96
2022-08-21T08:14:26.516Z,20.00
2022-08-21T08:16:33.293Z,20.06
2022-08-21T08:18:35.334Z,19.94
2022-08-21T08:20:37.094Z,19.87
2022-08-21T08:22:40.139Z,19.94
2022-08-21T08:24:41.971Z,19.96
2022-08-21T08:26:43.849Z,20.03
2022-08-21T08:28:47.668Z,19.98
2022-08-21T08:30:50.588Z,20.01
2022-08-21T08:32:52.620Z,19.95
2022-08-21T08:34:54.332Z,19.98
2022-08-21T08:36:58.855Z,20.08
2022-08-21T08:39:01.917Z,20.21
2022-08-21T08:41:13.945Z,20.17
2022-08-21T08:43:15.872Z,20.19
2022-08-21T08:45:23.137Z,20.28
2022-08-21T08:47:26.684Z,20.25
2022-08-21T08:49:37.818Z,20.28
2022-08-21T08:51:56.152Z,20.27
2022-08-21T08:54:07.129Z,20.28
2022-08-21T08:56:09.121Z,20.24
2022-08-21T08:58:31.244Z,20.28
2022-08-21T09:00:33.694Z,20.36
2022-08-21T09:02:35.478Z,20.44
2022-08-21T09:04:37.303Z,20.53
2022-08-21T09:06:53.014Z,20.57
2022-08-21T09:09:12.472Z,20.61
2022-08-21T09:11:25.255Z,20.66
2022-08-21T09:13:55.457Z,20.80
2022-08-21T09:16:01.032Z,20.79
2022-08-21T09:18:42.031Z,20.83
2022-08-21T09:21:04.995Z,20.82
2022-08-21T09:23:06.705Z,20.97
2022-08-21T09:25:17.157Z,21.03
2022-08-21T09:27:20.301Z,21.14
2022-08-21T09:29:27.067Z,21.19
2022-08-21T09:31:33.606Z,21.25
2022-08-21T09:33:36.016Z,21.28
2022-08-21T09:35:38.386Z,21.36
2022-08-21T09:37:54.818Z,21.39
2022-08-21T09:39:58.558Z,21.37
2022-08-21T09:42:05.101Z,21.51
2022-08-21T09:44:09.200Z,21.54
2022-08-21T09:46:21.050Z,21.61
2022-08-21T09:48:32.768Z,21.70
2022-08-21T09:50:35.159Z,21.50
2022-08-21T09:52:45.466Z,21.59
2022-08-21T09:54:47.659Z,21.63
2022-08-21T09:57:15.575Z,21.72
2022-08-21T09:59:25.975Z,21.84
2022-08-21T10:01:27.828Z,21.91
2022-08-21T10:03:29.805Z,21.93
2022-08-21T10:05:31.694Z,22.03
2022-08-21T10:07:36.991Z,22.05
2022-08-21T10:09:38.812Z,22.21
2022-08-21T10:11:44.409Z,22.29
2022-08-21T10:14:03.290Z,22.27
2022-08-21T10:16:32.478Z,22.40
2022-08-21T10:18:43.327Z,22.45
2022-08-21T10:21:11.893Z,22.45
2022-08-21T10:23:38.670Z,22.55
2022-08-21T10:26:13.823Z,22.63
2022-08-21T10:28:38.655Z,22.53
2022-08-21T10:30:48.027Z,22.58
2022-08-21T10:33:28.161Z,22.65
2022-08-21T10:35:35.151Z,22.85
2022-08-21T10:38:06.056Z,22.96
2022-08-21T10:40:11.114Z,23.04
2022-08-21T10:42:48.633Z,23.10
2022-08-21T10:45:09.666Z,23.06
2022-08-21T10:47:24.923Z,23.10
2022-08-21T10:49:52.429Z,22.99
2022-08-21T10:52:12.059Z,23.00
2022-08-21T10:54:44.145Z,22.82
2022-08-21T10:56:50.397Z,22.84
2022-08-21T10:59:13.723Z,22.88
2022-08-21T11:01:29.579Z,22.86
2022-08-21T11:03:42.926Z,22.80
2022-08-21T11:05:52.853Z,22.68
2022-08-21T11:08:38.652Z,22.72
2022-08-21T11:10:51.326Z,22.74
2022-08-21T11:13:31.222Z,22.71
2022-08-21T11:16:10.229Z,22.66
2022-08-21T11:18:35.851Z,22.73
2022-08-21T11:20:44.545Z,22.78
2022-08-21T11:23:03.026Z,22.73
2022-08-21T11:25:22.178Z,22.75
2022-08-21T11:27:34.186Z,22.63
2022-08-21T11:29:41.832Z,22.62
2022-08-21T11:32:14.340Z,22.60
2022-08-21T11:34:45.699Z,22.69
2022-08-21T11:37:09.154Z,22.68
2022-08-21T11:39:35.806Z,22.65
2022-08-21T11:41:47.270Z,22.72
2022-08-21T11:44:11.594Z,22.65
2022-08-21T11:46:41.847Z,22.80
2022-08-21T11:49:25.491Z,22.82
2022-08-21T11:51:40.088Z,22.72
2022-08-21T11:53:59.987Z,22.66
2022-08-21T11:56:10.597Z,22.74
2022-08-21T11:58:35.915Z,22.77
2022-08-21T12:00:45.366Z,22.82
2022-08-21T12:02:51.421Z,22.84
2022-08-21T12:05:08.872Z,22.84
2022-08-21T12:07:18.234Z,22.91
2022-08-21T12:09:25.872Z,22.96
2022-08-21T12:11:30.642Z,22.96
2022-08-21T12:13:40.287Z,23.10
2022-08-21T12:15:43.918Z,23.16
2022-08-21T12:18:29.429Z,23.32
2022-08-21T12:22:41.933Z,23.65
2022-08-21T12:24:49.584Z,23.71
2022-08-21T12:27:00.566Z,23.78
2022-08-21T12:29:15.058Z,23.93
2022-08-21T12:31:26.712Z,23.97
2022-08-21T12:33:28.374Z,24.10
2022-08-21T12:35:37.085Z,24.21
2022-08-21T12:37:51.055Z,24.27
2022-08-21T12:39:55.603Z,24.27
2022-08-21T12:42:20.299Z,24.41
2022-08-21T12:44:29.073Z,24.53
2022-08-21T12:46:38.167Z,24.73
2022-08-21T12:48:49.653Z,24.75
2022-08-21T12:50:55.033Z,25.09
2022-08-21T12:53:22.856Z,25.13
2022-08-21T12:55:33.846Z,25.34
2022-08-21T12:57:37.673Z,25.42
2022-08-21T12:59:40.774Z,25.44
2022-08-21T13:01:50.757Z,25.48
2022-08-21T13:04:04.441Z,25.58
2022-08-21T13:06:10.725Z,25.61
2022-08-21T13:08:14.786Z,25.72
2022-08-21T13:10:23.604Z,25.84
2022-08-21T13:12:29.474Z,25.80
2022-08-21T13:14:45.988Z,25.91
2022-08-21T13:16:53.557Z,25.84
2022-08-21T13:19:06.552Z,25.86
2022-08-21T13:21:18.414Z,25.92
2022-08-21T13:23:30.166Z,25.84
2022-08-21T13:25:37.872Z,25.84
2022-08-21T13:27:40.403Z,25.81
2022-08-21T13:29:44.130Z,25.79
2022-08-21T13:31:57.149Z,25.90
2022-08-21T13:34:01.306Z,26.01
2022-08-21T13:36:10.313Z,26.07
2022-08-21T13:38:12.271Z,26.33
2022-08-21T13:40:19.734Z,26.44
2022-08-21T13:42:21.817Z,26.56
2022-08-21T13:44:32.982Z,26.58
2022-08-21T13:46:37.060Z,26.56
2022-08-21T13:48:40.542Z,26.58
2022-08-21T13:50:43.925Z,26.78
2022-08-21T13:52:52.438Z,26.93
2022-08-21T13:55:08.688Z,27.09
2022-08-21T13:57:29.615Z,27.23
2022-08-21T13:59:36.620Z,27.46
2022-08-21T14:01:55.715Z,27.70
2022-08-21T14:04:05.832Z,28.01
2022-08-21T14:06:18.165Z,28.27
2022-08-21T14:08:34.239Z,28.49
2022-08-21T14:10:55.936Z,28.70
2022-08-21T14:13:05.145Z,28.83
2022-08-21T14:15:08.146Z,28.92
2022-08-21T14:17:33.717Z,28.93
2022-08-21T14:19:48.077Z,28.34
2022-08-21T14:21:50.114Z,28.24
2022-08-21T14:24:09.380Z,28.42
2022-08-21T14:26:11.431Z,28.47
2022-08-21T14:28:34.622Z,28.40
2022-08-21T14:30:40.129Z,28.48
2022-08-21T14:32:44.682Z,28.50
2022-08-21T14:34:47.682Z,28.54
2022-08-21T14:36:51.203Z,28.63
2022-08-21T14:38:53.198Z,28.81
2022-08-21T14:41:00.588Z,29.09
2022-08-21T14:43:03.270Z,29.27
2022-08-21T14:45:31.826Z,29.20
2022-08-21T14:47:33.516Z,29.44
2022-08-21T14:49:35.317Z,29.17
2022-08-21T14:51:37.058Z,29.31
2022-08-21T14:53:55.656Z,29.35
2022-08-21T14:56:06.377Z,29.21
2022-08-21T14:58:08.078Z,29.04
2022-08-21T15:00:11.637Z,28.89
2022-08-21T15:02:13.498Z,28.85
2022-08-21T15:04:15.307Z,29.01
2022-08-21T15:06:19.487Z,29.19
2022-08-21T15:08:29.540Z,29.23
2022-08-21T15:10:35.003Z,29.42
2022-08-21T15:12:37.086Z,29.57
2022-08-21T15:14:41.346Z,29.82
2022-08-21T15:16:43.313Z,29.99
2022-08-21T15:18:44.999Z,30.19
2022-08-21T15:20:47.333Z,30.34
2022-08-21T15:22:49.011Z,30.10
2022-08-21T15:24:52.119Z,30.06
2022-08-21T15:26:55.302Z,30.20
2022-08-21T15:28:57.044Z,30.20
2022-08-21T15:31:01.498Z,30.18
2022-08-21T15:33:03.245Z,29.98
2022-08-21T15:35:05.218Z,29.77
2022-08-21T15:37:08.996Z,29.52
2022-08-21T15:39:10.705Z,29.25
2022-08-21T15:41:14.474Z,29.07
2022-08-21T15:43:30.949Z,28.83
2022-08-21T15:45:34.062Z,28.51
2022-08-21T15:47:38.123Z,28.36
2022-08-21T15:49:40.017Z,28.40
2022-08-21T15:51:43.721Z,28.63
2022-08-21T15:53:47.518Z,28.67
2022-08-21T15:55:49.402Z,28.87
2022-08-21T15:57:58.211Z,28.79
2022-08-21T16:00:19.119Z,29.03
2022-08-21T16:02:26.624Z,29.12
2022-08-21T16:04:28.995Z,29.27
2022-08-21T16:06:37.934Z,29.15
2022-08-21T16:08:53.013Z,28.77
2022-08-21T16:10:55.834Z,28.94
2022-08-21T16:13:02.690Z,28.84
2022-08-21T16:15:08.108Z,28.57
2022-08-21T16:17:12.446Z,28.62
2022-08-21T16:19:15.174Z,28.75
2022-08-21T16:21:17.595Z,28.87
2022-08-21T16:23:19.703Z,28.95
2022-08-21T16:25:21.953Z,29.04
2022-08-21T16:27:27.296Z,28.98
2022-08-21T16:29:33.805Z,28.90
2022-08-21T16:31:36.086Z,28.83
2022-08-21T16:33:41.404Z,28.42
2022-08-21T16:35:46.920Z,28.39
2022-08-21T16:37:52.923Z,28.51
2022-08-21T16:39:55.060Z,28.43
2022-08-21T16:41:56.958Z,28.62
2022-08-21T16:43:58.996Z,28.70
2022-08-21T16:46:01.547Z,28.48
2022-08-21T16:48:06.623Z,28.58
2022-08-21T16:50:08.778Z,28.49
2022-08-21T16:52:10.460Z,28.55
2022-08-21T16:54:14.000Z,28.39
2022-08-21T16:56:16.961Z,28.27
2022-08-21T16:58:34.647Z,28.19
2022-08-21T17:00:36.548Z,28.10
2022-08-21T17:02:42.643Z,28.06
2022-08-21T17:04:44.444Z,27.99
2022-08-21T17:06:46.549Z,27.89
2022-08-21T17:08:52.655Z,27.87
2022-08-21T17:10:55.132Z,27.81
2022-08-21T17:12:58.714Z,27.79
2022-08-21T17:15:06.224Z,27.73
2022-08-21T17:17:10.601Z,27.71
2022-08-21T17:19:13.464Z,27.68
2022-08-21T17:21:18.685Z,27.68
2022-08-21T17:23:21.495Z,27.42
2022-08-21T17:25:23.657Z,27.37
2022-08-21T17:27:28.275Z,27.23
2022-08-21T17:29:35.740Z,27.25
2022-08-21T17:31:40.156Z,27.20
2022-08-21T17:33:51.091Z,27.11
2022-08-21T17:35:53.327Z,27.08
2022-08-21T17:37:55.064Z,27.00
2022-08-21T17:39:58.959Z,26.92
2022-08-21T17:42:05.429Z,26.76
2022-08-21T17:44:10.693Z,26.80
2022-08-21T17:46:21.659Z,26.64
2022-08-21T17:48:26.921Z,26.59
2022-08-21T17:50:28.861Z,26.59
2022-08-21T17:52:30.611Z,26.50
2022-08-21T17:54:32.293Z,26.48
2022-08-21T17:56:37.441Z,26.46
2022-08-21T17:58:39.318Z,26.45
2022-08-21T18:00:41.666Z,26.19
2022-08-21T18:02:45.997Z,26.15
2022-08-21T18:04:51.415Z,26.18
2022-08-21T18:06:53.129Z,26.05
2022-08-21T18:08:54.834Z,26.10
2022-08-21T18:10:58.267Z,26.02
2022-08-21T18:13:06.942Z,25.84
2022-08-21T18:15:11.292Z,25.79
2022-08-21T18:17:19.136Z,25.68
2022-08-21T18:19:25.264Z,25.66
2022-08-21T18:21:27.811Z,25.47
2022-08-21T18:23:43.933Z,25.38
2022-08-21T18:25:50.961Z,25.32
2022-08-21T18:27:53.045Z,25.35
2022-08-21T18:29:57.110Z,25.24
2022-08-21T18:31:58.905Z,25.08
2022-08-21T18:34:06.169Z,25.16
2022-08-21T18:36:09.941Z,25.07
2022-08-21T18:38:13.116Z,25.06
2022-08-21T18:40:15.954Z,25.00
2022-08-21T18:42:18.491Z,24.89
2022-08-21T18:44:23.410Z,24.86
2022-08-21T18:46:25.135Z,24.83
2022-08-21T18:48:29.317Z,24.64
2022-08-21T18:50:31.288Z,24.58
2022-08-21T18:52:33.002Z,24.55
2022-08-21T18:54:37.305Z,24.41
2022-08-21T18:56:42.254Z,24.39
2022-08-21T18:58:45.917Z,24.18
2022-08-21T19:00:50.802Z,24.25
2022-08-21T19:02:53.346Z,24.14
2022-08-21T19:04:55.566Z,24.03
2022-08-21T19:06:57.584Z,24.05
2022-08-21T19:09:02.289Z,24.00
2022-08-21T19:11:04.942Z,24.06
2022-08-21T19:13:07.375Z,23.94
2022-08-21T19:15:12.961Z,23.92
2022-08-21T19:17:15.081Z,23.87
2022-08-21T19:19:18.370Z,23.94
2022-08-21T19:21:20.893Z,23.83
2022-08-21T19:23:28.986Z,23.84
2022-08-21T19:25:34.486Z,23.80
2022-08-21T19:27:37.577Z,23.82
2022-08-21T19:29:40.261Z,23.70
2022-08-21T19:31:44.047Z,23.64
2022-08-21T19:33:52.109Z,23.65
2022-08-21T19:35:55.559Z,23.56
2022-08-21T19:37:57.606Z,23.46
2022-08-21T19:39:59.861Z,23.52
2022-08-21T19:42:01.939Z,23.54
2022-08-21T19:44:07.551Z,23.54
2022-08-21T19:46:12.658Z,23.58
2022-08-21T19:48:15.112Z,23.50
2022-08-21T19:50:21.669Z,23.43
2022-08-21T19:52:23.857Z,23.43
2022-08-21T19:54:30.256Z,23.36
2022-08-21T19:56:34.362Z,23.34
2022-08-21T19:58:39.861Z,23.35
2022-08-21T20:00:44.008Z,23.36
2022-08-21T20:02:48.230Z,23.36
2022-08-21T20:04:53.828Z,23.26
2022-08-21T20:06:57.043Z,23.23
2022-08-21T20:08:59.353Z,23.24
2022-08-21T20:11:03.162Z,23.24
2022-08-21T20:13:06.555Z,23.18
2022-08-21T20:15:09.396Z,23.14
2022-08-21T20:17:12.901Z,23.14
2022-08-21T20:19:16.156Z,23.13
2022-08-21T20:21:20.645Z,23.05
2022-08-21T20:23:30.398Z,23.05
2022-08-21T20:25:36.108Z,22.92
2022-08-21T20:27:40.537Z,23.00
2022-08-21T20:29:42.788Z,22.99
2022-08-21T20:31:45.090Z,23.00
2022-08-21T20:36:10.474Z,22.96
2022-08-21T20:38:13.386Z,22.86
2022-08-21T20:40:16.655Z,22.80
2022-08-21T20:42:25.365Z,22.81
2022-08-21T20:44:31.610Z,22.74
2022-08-21T20:46:35.340Z,22.76
2022-08-21T20:48:49.881Z,22.70
2022-08-21T20:50:59.169Z,22.72
2022-08-21T20:53:12.302Z,22.74
2022-08-21T20:55:17.651Z,22.67
2022-08-21T20:57:27.139Z,22.60
2022-08-21T20:59:35.254Z,22.56
2022-08-21T21:01:37.795Z,22.41
2022-08-21T21:03:55.072Z,22.48
2022-08-21T21:06:04.276Z,22.46
2022-08-21T21:08:31.177Z,22.46
2022-08-21T21:10:36.967Z,22.46
2022-08-21T21:12:48.834Z,22.45
2022-08-21T21:14:59.540Z,22.41
2022-08-21T21:17:06.060Z,22.41
2022-08-21T21:19:37.002Z,22.36
2022-08-21T21:21:51.372Z,22.36
2022-08-21T21:24:04.500Z,22.29
2022-08-21T21:26:18.439Z,22.24
2022-08-21T21:28:43.138Z,22.08
2022-08-21T21:33:09.616Z,22.09
2022-08-21T21:35:14.900Z,21.89
2022-08-21T21:37:25.642Z,21.94
2022-08-21T21:39:36.139Z,21.93
2022-08-21T21:41:56.971Z,21.99
2022-08-21T21:44:08.048Z,21.87
2022-08-21T21:46:33.694Z,21.90
2022-08-21T21:48:57.919Z,21.93
2022-08-21T21:51:12.032Z,21.89
2022-08-21T21:53:45.819Z,21.96
2022-08-21T21:56:30.002Z,21.94
2022-08-21T21:58:47.839Z,21.98
2022-08-21T22:00:59.094Z,21.92
2022-08-21T22:03:23.823Z,22.00
2022-08-21T22:05:41.234Z,21.94
2022-08-21T22:08:07.991Z,21.91
2022-08-21T22:10:30.176Z,21.86
2022-08-21T22:13:10.174Z,21.74
2022-08-21T22:15:13.249Z,21.78
2022-08-21T22:17:43.670Z,21.79
2022-08-21T22:19:47.043Z,21.79
2022-08-21T22:22:01.668Z,21.86
2022-08-21T22:24:15.531Z,21.85
2022-08-21T22:26:21.589Z,21.86
2022-08-21T22:28:33.003Z,21.79
2022-08-21T22:30:52.452Z,21.78
2022-08-21T22:33:00.221Z,21.83
2022-08-21T22:35:12.515Z,21.72
2022-08-21T22:37:14.680Z,21.72
2022-08-21T22:39:37.807Z,21.69
2022-08-21T22:41:44.210Z,21.67
2022-08-21T22:44:03.755Z,21.65
2022-08-21T22:46:09.338Z,21.67
2022-08-21T22:48:22.423Z,21.59
2022-08-21T22:50:24.993Z,21.64
2022-08-21T22:52:36.350Z,21.60
2022-08-21T22:54:42.479Z,21.48
2022-08-21T22:56:55.356Z,21.53
2022-08-21T22:59:02.097Z,21.54
2022-08-21T23:01:17.152Z,21.59
2022-08-21T23:03:43.853Z,21.57
2022-08-21T23:05:46.490Z,21.55
2022-08-21T23:07:51.256Z,21.50
2022-08-21T23:09:56.138Z,21.46
2022-08-21T23:12:14.082Z,21.41
2022-08-21T23:14:25.243Z,21.39
2022-08-21T23:16:36.703Z,21.35
2022-08-21T23:19:23.758Z,21.28
2022-08-21T23:21:50.073Z,21.31
2022-08-21T23:24:19.114Z,21.29
2022-08-21T23:26:46.939Z,21.30
2022-08-21T23:29:24.662Z,21.26
2022-08-21T23:31:45.646Z,21.17
2022-08-21T23:34:06.309Z,21.22
2022-08-21T23:36:32.447Z,21.21
2022-08-21T23:39:10.511Z,21.23
2022-08-21T23:41:38.739Z,21.18
2022-08-21T23:43:55.708Z,21.19
2022-08-21T23:46:32.386Z,21.10
2022-08-21T23:48:54.490Z,21.10
2022-08-21T23:51:02.898Z,21.10
2022-08-21T23:53:25.452Z,21.10
2022-08-21T23:55:44.462Z,21.01
2022-08-21T23:58:13.501Z,21.03
